sensor_id;sensor_type;location;lat;lon;timestamp;pressure;altitude;pressure_sealevel;temperature;humidity
8573;BME280;4324;42.012;24.872;2023-06-14T00:00:15;98547.75;;;22.13;76.50
8573;BME280;4324;42.012;24.872;2023-06-14T00:02:42;98551.88;;;22.16;76.29
8573;BME280;4324;42.012;24.872;2023-06-14T00:05:09;98543.94;;;22.09;76.22
8573;BME280;4324;42.012;24.872;2023-06-14T00:07:39;98554.22;;;22.12;76.20
8573;BME280;4324;42.012;24.872;2023-06-14T00:10:08;98551.06;;;22.15;76.25
8573;BME280;4324;42.012;24.872;2023-06-14T00:12:36;98474.78;;;21.71;76.20
8573;BME280;4324;42.012;24.872;2023-06-14T00:15:04;98556.50;;;22.20;76.18
8573;BME280;4324;42.012;24.872;2023-06-14T00:17:32;98542.16;;;22.15;76.07
8573;BME280;4324;42.012;24.872;2023-06-14T00:19:59;98549.75;;;22.18;76.03
8573;BME280;4324;42.012;24.872;2023-06-14T00:22:29;98551.06;;;22.15;76.13
8573;BME280;4324;42.012;24.872;2023-06-14T00:24:56;98546.75;;;22.14;76.08
8573;BME280;4324;42.012;24.872;2023-06-14T00:27:23;98532.03;;;22.05;76.04
8573;BME280;4324;42.012;24.872;2023-06-14T00:29:50;98532.13;;;22.10;76.13
8573;BME280;4324;42.012;24.872;2023-06-14T00:32:18;98536.44;;;22.11;75.96
8573;BME280;4324;42.012;24.872;2023-06-14T00:34:46;98538.31;;;22.11;75.92
8573;BME280;4324;42.012;24.872;2023-06-14T00:37:13;98531.53;;;22.08;76.04
8573;BME280;4324;42.012;24.872;2023-06-14T00:39:39;98525.56;;;22.06;76.07
8573;BME280;4324;42.012;24.872;2023-06-14T00:42:06;98519.69;;;22.09;76.11
8573;BME280;4324;42.012;24.872;2023-06-14T00:44:33;98520.50;;;22.10;76.07
8573;BME280;4324;42.012;24.872;2023-06-14T00:47:00;98516.44;;;22.07;76.04
8573;BME280;4324;42.012;24.872;2023-06-14T00:49:28;98512.03;;;22.01;75.86
8573;BME280;4324;42.012;24.872;2023-06-14T00:51:57;98519.91;;;22.03;76.00
8573;BME280;4324;42.012;24.872;2023-06-14T00:54:24;98514.44;;;21.97;76.03
8573;BME280;4324;42.012;24.872;2023-06-14T00:56:50;98499.19;;;21.86;76.19
8573;BME280;4324;42.012;24.872;2023-06-14T00:59:17;98513.88;;;21.95;76.12
8573;BME280;4324;42.012;24.872;2023-06-14T01:01:44;98498.38;;;21.86;76.17
8573;BME280;4324;42.012;24.872;2023-06-14T01:04:11;98518.44;;;21.95;76.20
8573;BME280;4324;42.012;24.872;2023-06-14T01:06:46;98506.53;;;21.91;76.28
8573;BME280;4324;42.012;24.872;2023-06-14T01:09:23;98505.91;;;21.84;76.33
8573;BME280;4324;42.012;24.872;2023-06-14T01:11:59;98517.63;;;21.94;76.59
8573;BME280;4324;42.012;24.872;2023-06-14T01:14:27;98507.88;;;21.88;76.47
8573;BME280;4324;42.012;24.872;2023-06-14T01:16:58;98519.78;;;21.92;76.36
8573;BME280;4324;42.012;24.872;2023-06-14T01:19:26;98498.06;;;21.82;76.68
8573;BME280;4324;42.012;24.872;2023-06-14T01:21:53;98504.59;;;21.86;76.75
8573;BME280;4324;42.012;24.872;2023-06-14T01:24:21;98500.47;;;21.79;76.84
8573;BME280;4324;42.012;24.872;2023-06-14T01:26:52;98495.38;;;21.82;77.16
8573;BME280;4324;42.012;24.872;2023-06-14T01:29:22;98497.44;;;21.75;76.83
8573;BME280;4324;42.012;24.872;2023-06-14T01:31:50;98499.88;;;21.77;76.92
8573;BME280;4324;42.012;24.872;2023-06-14T01:34:17;98499.03;;;21.71;77.11
8573;BME280;4324;42.012;24.872;2023-06-14T01:36:45;98499.78;;;21.66;77.18
8573;BME280;4324;42.012;24.872;2023-06-14T01:39:14;98501.34;;;21.62;77.39
8573;BME280;4324;42.012;24.872;2023-06-14T01:41:44;98497.22;;;21.55;77.36
8573;BME280;4324;42.012;24.872;2023-06-14T01:44:12;98496.03;;;21.50;77.45
8573;BME280;4324;42.012;24.872;2023-06-14T01:46:42;98501.16;;;21.47;77.46
8573;BME280;4324;42.012;24.872;2023-06-14T01:49:09;98504.72;;;21.36;77.83
8573;BME280;4324;42.012;24.872;2023-06-14T01:51:36;98512.25;;;21.34;77.94
8573;BME280;4324;42.012;24.872;2023-06-14T01:54:03;98505.13;;;21.27;78.03
8573;BME280;4324;42.012;24.872;2023-06-14T01:56:31;98513.88;;;21.35;78.07
8573;BME280;4324;42.012;24.872;2023-06-14T01:58:59;98515.50;;;21.36;77.94
8573;BME280;4324;42.012;24.872;2023-06-14T02:01:26;98516.84;;;21.33;78.04
8573;BME280;4324;42.012;24.872;2023-06-14T02:03:54;98520.09;;;21.35;78.25
8573;BME280;4324;42.012;24.872;2023-06-14T02:06:21;98516.84;;;21.33;78.33
8573;BME280;4324;42.012;24.872;2023-06-14T02:08:47;98516.09;;;21.38;78.14
8573;BME280;4324;42.012;24.872;2023-06-14T02:11:15;98507.34;;;21.31;78.10
8573;BME280;4324;42.012;24.872;2023-06-14T02:13:42;98514.69;;;21.35;77.90
8573;BME280;4324;42.012;24.872;2023-06-14T02:16:11;98516.00;;;21.33;78.16
8573;BME280;4324;42.012;24.872;2023-06-14T02:18:38;98521.88;;;21.30;78.34
8573;BME280;4324;42.012;24.872;2023-06-14T02:21:05;98498.56;;;21.18;78.36
8573;BME280;4324;42.012;24.872;2023-06-14T02:23:32;98507.50;;;21.24;78.76
8573;BME280;4324;42.012;24.872;2023-06-14T02:25:59;98514.16;;;21.33;78.67
8573;BME280;4324;42.012;24.872;2023-06-14T02:28:26;98514.34;;;21.32;78.85
8573;BME280;4324;42.012;24.872;2023-06-14T02:30:53;98513.88;;;21.35;79.21
8573;BME280;4324;42.012;24.872;2023-06-14T02:33:21;98514.69;;;21.35;79.14
8573;BME280;4324;42.012;24.872;2023-06-14T02:35:48;98511.09;;;21.30;79.29
8573;BME280;4324;42.012;24.872;2023-06-14T02:38:15;98512.41;;;21.27;79.21
8573;BME280;4324;42.012;24.872;2023-06-14T02:40:42;98520.25;;;21.29;79.15
8573;BME280;4324;42.012;24.872;2023-06-14T02:43:09;98509.81;;;21.15;79.25
8573;BME280;4324;42.012;24.872;2023-06-14T02:45:36;98522.84;;;21.23;79.58
8573;BME280;4324;42.012;24.872;2023-06-14T02:48:03;98530.13;;;21.23;79.75
8573;BME280;4324;42.012;24.872;2023-06-14T02:50:32;98511.91;;;21.13;79.64
8573;BME280;4324;42.012;24.872;2023-06-14T02:52:59;98534.69;;;21.22;79.57
8573;BME280;4324;42.012;24.872;2023-06-14T02:55:26;98540.31;;;21.21;79.54
8573;BME280;4324;42.012;24.872;2023-06-14T02:57:53;98526.53;;;21.17;79.62
8573;BME280;4324;42.012;24.872;2023-06-14T03:00:20;98532.97;;;21.16;79.87
8573;BME280;4324;42.012;24.872;2023-06-14T03:02:47;98526.13;;;21.09;79.82
8573;BME280;4324;42.012;24.872;2023-06-14T03:05:14;98534.63;;;21.17;79.59
8573;BME280;4324;42.012;24.872;2023-06-14T03:07:42;98535.66;;;21.16;79.68
8573;BME280;4324;42.012;24.872;2023-06-14T03:10:10;98538.84;;;21.13;79.53
8573;BME280;4324;42.012;24.872;2023-06-14T03:12:38;98539.34;;;21.10;79.73
8573;BME280;4324;42.012;24.872;2023-06-14T03:15:06;98540.97;;;21.11;79.90
8573;BME280;4324;42.012;24.872;2023-06-14T03:17:33;98542.69;;;21.17;79.76
8573;BME280;4324;42.012;24.872;2023-06-14T03:20:00;98537.06;;;21.19;79.42
8573;BME280;4324;42.012;24.872;2023-06-14T03:22:27;98530.03;;;21.18;79.62
8573;BME280;4324;42.012;24.872;2023-06-14T03:24:56;98546.28;;;21.23;79.56
8573;BME280;4324;42.012;24.872;2023-06-14T03:27:24;98544.38;;;21.23;79.69
8573;BME280;4324;42.012;24.872;2023-06-14T03:29:54;98555.16;;;21.23;79.53
8573;BME280;4324;42.012;24.872;2023-06-14T03:32:21;98554.94;;;21.25;79.80
8573;BME280;4324;42.012;24.872;2023-06-14T03:34:47;98557.63;;;21.25;80.03
8573;BME280;4324;42.012;24.872;2023-06-14T03:37:26;98553.38;;;21.29;80.29
8573;BME280;4324;42.012;24.872;2023-06-14T03:39:57;98555.09;;;21.35;80.04
8573;BME280;4324;42.012;24.872;2023-06-14T03:42:23;98572.16;;;21.41;80.23
8573;BME280;4324;42.012;24.872;2023-06-14T03:44:50;98571.56;;;21.39;80.57
8573;BME280;4324;42.012;24.872;2023-06-14T03:47:17;98560.72;;;21.34;80.54
8573;BME280;4324;42.012;24.872;2023-06-14T03:49:44;98578.03;;;21.38;80.81
8573;BME280;4324;42.012;24.872;2023-06-14T03:52:11;98578.97;;;21.32;81.34
8573;BME280;4324;42.012;24.872;2023-06-14T03:54:39;98568.28;;;21.20;82.21
8573;BME280;4324;42.012;24.872;2023-06-14T03:57:07;98582.00;;;21.18;82.83
8573;BME280;4324;42.012;24.872;2023-06-14T03:59:34;98588.63;;;21.11;83.10
8573;BME280;4324;42.012;24.872;2023-06-14T04:02:02;98585.59;;;21.07;83.43
8573;BME280;4324;42.012;24.872;2023-06-14T04:04:28;98588.69;;;20.99;84.33
8573;BME280;4324;42.012;24.872;2023-06-14T04:06:55;98593.97;;;20.94;84.96
8573;BME280;4324;42.012;24.872;2023-06-14T04:09:23;98589.41;;;20.77;84.90
8573;BME280;4324;42.012;24.872;2023-06-14T04:11:51;98587.53;;;20.78;85.50
8573;BME280;4324;42.012;24.872;2023-06-14T04:14:20;98593.78;;;20.84;86.27
8573;BME280;4324;42.012;24.872;2023-06-14T04:16:47;98600.03;;;20.84;86.73
8573;BME280;4324;42.012;24.872;2023-06-14T04:19:14;98594.88;;;20.83;86.98
8573;BME280;4324;42.012;24.872;2023-06-14T04:21:41;98598.69;;;20.87;87.26
8573;BME280;4324;42.012;24.872;2023-06-14T04:24:08;98588.91;;;20.81;87.84
8573;BME280;4324;42.012;24.872;2023-06-14T04:26:38;98597.41;;;20.89;87.80
8573;BME280;4324;42.012;24.872;2023-06-14T04:29:05;98595.94;;;20.98;88.12
8573;BME280;4324;42.012;24.872;2023-06-14T04:31:34;98606.16;;;20.96;88.35
8573;BME280;4324;42.012;24.872;2023-06-14T04:34:03;98597.59;;;20.99;88.08
8573;BME280;4324;42.012;24.872;2023-06-14T04:36:32;98606.06;;;21.08;88.19
8573;BME280;4324;42.012;24.872;2023-06-14T04:39:02;98589.19;;;20.96;87.92
8573;BME280;4324;42.012;24.872;2023-06-14T04:41:29;98612.75;;;21.06;88.04
8573;BME280;4324;42.012;24.872;2023-06-14T04:43:57;98613.41;;;21.13;88.17
8573;BME280;4324;42.012;24.872;2023-06-14T04:46:27;98616.69;;;21.15;88.23
8573;BME280;4324;42.012;24.872;2023-06-14T04:48:55;98602.63;;;21.13;88.07
8573;BME280;4324;42.012;24.872;2023-06-14T04:51:23;98598.16;;;21.18;87.93
8573;BME280;4324;42.012;24.872;2023-06-14T04:53:55;98616.53;;;21.38;87.44
8573;BME280;4324;42.012;24.872;2023-06-14T04:56:24;98622.75;;;21.39;87.58
8573;BME280;4324;42.012;24.872;2023-06-14T04:58:51;98597.75;;;21.26;87.79
8573;BME280;4324;42.012;24.872;2023-06-14T05:01:18;98618.50;;;21.43;87.65
8573;BME280;4324;42.012;24.872;2023-06-14T05:03:46;98616.44;;;21.50;87.34
8573;BME280;4324;42.012;24.872;2023-06-14T05:06:16;98618.16;;;21.56;87.62
8573;BME280;4324;42.012;24.872;2023-06-14T05:08:43;98626.56;;;21.60;87.01
8573;BME280;4324;42.012;24.872;2023-06-14T05:11:11;98605.78;;;21.55;87.60
8573;BME280;4324;42.012;24.872;2023-06-14T05:13:37;98630.72;;;21.67;87.72
8573;BME280;4324;42.012;24.872;2023-06-14T05:16:05;98630.88;;;21.78;87.28
8573;BME280;4324;42.012;24.872;2023-06-14T05:18:32;98635.09;;;21.90;87.17
8573;BME280;4324;42.012;24.872;2023-06-14T05:21:00;98640.81;;;21.94;86.82
8573;BME280;4324;42.012;24.872;2023-06-14T05:23:29;98639.19;;;21.93;86.64
8573;BME280;4324;42.012;24.872;2023-06-14T05:25:56;98647.28;;;21.93;86.71
8573;BME280;4324;42.012;24.872;2023-06-14T05:28:23;98640.44;;;21.85;86.57
8573;BME280;4324;42.012;24.872;2023-06-14T05:30:50;98641.19;;;21.81;86.73
8573;BME280;4324;42.012;24.872;2023-06-14T05:33:17;98650.78;;;21.93;86.48
8573;BME280;4324;42.012;24.872;2023-06-14T05:35:44;98655.50;;;22.03;86.20
8573;BME280;4324;42.012;24.872;2023-06-14T05:38:12;98657.75;;;22.11;85.90
8573;BME280;4324;42.012;24.872;2023-06-14T05:40:40;98661.44;;;22.22;85.60
8573;BME280;4324;42.012;24.872;2023-06-14T05:43:07;98665.31;;;22.31;85.14
8573;BME280;4324;42.012;24.872;2023-06-14T05:45:34;98658.19;;;22.42;85.16
8573;BME280;4324;42.012;24.872;2023-06-14T05:48:00;98663.75;;;22.57;85.17
8573;BME280;4324;42.012;24.872;2023-06-14T05:50:27;98661.03;;;22.79;84.49
8573;BME280;4324;42.012;24.872;2023-06-14T05:52:54;98659.91;;;22.97;84.03
8573;BME280;4324;42.012;24.872;2023-06-14T05:55:21;98660.63;;;23.14;83.40
8573;BME280;4324;42.012;24.872;2023-06-14T05:57:49;98635.53;;;23.19;82.78
8573;BME280;4324;42.012;24.872;2023-06-14T06:00:17;98651.13;;;23.44;82.02
8573;BME280;4324;42.012;24.872;2023-06-14T06:02:45;98664.41;;;23.51;81.90
8573;BME280;4324;42.012;24.872;2023-06-14T06:05:13;98667.78;;;23.63;81.58
8573;BME280;4324;42.012;24.872;2023-06-14T06:07:41;98652.47;;;23.74;81.35
8573;BME280;4324;42.012;24.872;2023-06-14T06:10:10;98662.28;;;23.90;80.84
8573;BME280;4324;42.012;24.872;2023-06-14T06:12:37;98650.97;;;23.93;80.19
8573;BME280;4324;42.012;24.872;2023-06-14T06:15:06;98655.59;;;24.03;79.59
8573;BME280;4324;42.012;24.872;2023-06-14T06:17:33;98648.56;;;23.97;79.41
8573;BME280;4324;42.012;24.872;2023-06-14T06:20:00;98665.16;;;24.15;79.07
8573;BME280;4324;42.012;24.872;2023-06-14T06:22:27;98669.53;;;24.32;78.45
8573;BME280;4324;42.012;24.872;2023-06-14T06:24:54;98664.22;;;24.42;78.19
8573;BME280;4324;42.012;24.872;2023-06-14T06:27:21;98662.59;;;24.41;77.19
8573;BME280;4324;42.012;24.872;2023-06-14T06:29:48;98646.22;;;24.21;77.49
8573;BME280;4324;42.012;24.872;2023-06-14T06:32:16;98664.69;;;24.34;77.70
8573;BME280;4324;42.012;24.872;2023-06-14T06:34:43;98667.44;;;24.39;77.19
8573;BME280;4324;42.012;24.872;2023-06-14T06:37:10;98670.19;;;24.44;77.14
8573;BME280;4324;42.012;24.872;2023-06-14T06:39:37;98648.78;;;24.43;76.68
8573;BME280;4324;42.012;24.872;2023-06-14T06:42:05;98672.44;;;24.68;76.24
8573;BME280;4324;42.012;24.872;2023-06-14T06:44:32;98668.63;;;24.63;75.88
8573;BME280;4324;42.012;24.872;2023-06-14T06:46:59;98672.44;;;24.68;75.81
8573;BME280;4324;42.012;24.872;2023-06-14T06:49:27;98673.25;;;24.68;75.36
8573;BME280;4324;42.012;24.872;2023-06-14T06:52:00;98683.03;;;24.74;74.99
8573;BME280;4324;42.012;24.872;2023-06-14T11:38:36;98611.84;;;27.00;67.91
8573;BME280;4324;42.012;24.872;2023-06-14T11:41:03;98612.84;;;27.15;67.50
8573;BME280;4324;42.012;24.872;2023-06-14T11:43:31;98634.25;;;27.56;66.78
8573;BME280;4324;42.012;24.872;2023-06-14T11:46:00;98617.22;;;27.74;66.12
8573;BME280;4324;42.012;24.872;2023-06-14T11:48:36;98613.94;;;28.01;65.55
8573;BME280;4324;42.012;24.872;2023-06-14T11:51:03;98619.91;;;28.27;65.00
8573;BME280;4324;42.012;24.872;2023-06-14T11:53:29;98619.81;;;28.37;64.22
8573;BME280;4324;42.012;24.872;2023-06-14T11:55:58;98600.25;;;28.30;63.75
8573;BME280;4324;42.012;24.872;2023-06-14T11:58:25;98614.38;;;28.37;63.34
8573;BME280;4324;42.012;24.872;2023-06-14T12:00:53;98617.53;;;28.44;63.29
8573;BME280;4324;42.012;24.872;2023-06-14T12:03:23;98615.91;;;28.62;62.84
8573;BME280;4324;42.012;24.872;2023-06-14T12:05:51;98613.50;;;28.99;62.37
8573;BME280;4324;42.012;24.872;2023-06-14T12:08:32;98596.53;;;29.21;61.74
8573;BME280;4324;42.012;24.872;2023-06-14T12:11:06;98600.81;;;29.40;60.96
8573;BME280;4324;42.012;24.872;2023-06-14T12:13:34;98616.59;;;29.43;60.69
8573;BME280;4324;42.012;24.872;2023-06-14T12:16:02;98602.03;;;29.34;60.52
8573;BME280;4324;42.012;24.872;2023-06-14T12:18:34;98593.25;;;29.37;60.57
8573;BME280;4324;42.012;24.872;2023-06-14T12:21:04;98597.66;;;29.66;60.35
8573;BME280;4324;42.012;24.872;2023-06-14T12:23:45;98595.88;;;29.75;59.88
8573;BME280;4324;42.012;24.872;2023-06-14T12:26:14;98603.88;;;29.85;59.05
8573;BME280;4324;42.012;24.872;2023-06-14T12:28:42;98590.31;;;29.80;59.15
8573;BME280;4324;42.012;24.872;2023-06-14T12:31:11;98580.63;;;29.74;59.17
8573;BME280;4324;42.012;24.872;2023-06-14T12:33:40;98573.53;;;29.73;58.86
8573;BME280;4324;42.012;24.872;2023-06-14T12:36:09;98571.22;;;29.80;58.90
8573;BME280;4324;42.012;24.872;2023-06-14T12:38:37;98573.34;;;29.97;58.30
8573;BME280;4324;42.012;24.872;2023-06-14T12:41:18;98568.50;;;30.08;58.00
8573;BME280;4324;42.012;24.872;2023-06-14T12:43:54;98565.88;;;30.17;57.89
8573;BME280;4324;42.012;24.872;2023-06-14T12:46:41;98551.09;;;30.04;57.33
8573;BME280;4324;42.012;24.872;2023-06-14T12:49:09;98559.91;;;30.01;57.60
8573;BME280;4324;42.012;24.872;2023-06-14T12:51:36;98553.44;;;29.97;57.45
8573;BME280;4324;42.012;24.872;2023-06-14T12:54:03;98554.91;;;30.03;57.31
8573;BME280;4324;42.012;24.872;2023-06-14T12:56:31;98556.75;;;30.07;57.30
8573;BME280;4324;42.012;24.872;2023-06-14T12:58:58;98553.19;;;30.07;57.39
8573;BME280;4324;42.012;24.872;2023-06-14T13:01:25;98553.84;;;30.04;56.60
8573;BME280;4324;42.012;24.872;2023-06-14T13:03:52;98533.72;;;29.86;56.72
8573;BME280;4324;42.012;24.872;2023-06-14T13:06:20;98543.91;;;29.94;56.84
8573;BME280;4324;42.012;24.872;2023-06-14T13:08:47;98543.19;;;29.88;56.80
8573;BME280;4324;42.012;24.872;2023-06-14T13:11:14;98545.53;;;30.09;56.68
8573;BME280;4324;42.012;24.872;2023-06-14T13:13:42;98543.19;;;30.02;55.70
8573;BME280;4324;42.012;24.872;2023-06-14T13:16:09;98536.66;;;29.89;55.77
8573;BME280;4324;42.012;24.872;2023-06-14T13:18:38;98546.25;;;29.87;55.96
8573;BME280;4324;42.012;24.872;2023-06-14T13:21:05;98531.91;;;29.81;56.17
8573;BME280;4324;42.012;24.872;2023-06-14T13:23:33;98540.78;;;30.01;55.84
8573;BME280;4324;42.012;24.872;2023-06-14T13:25:59;98537.94;;;30.06;55.63
8573;BME280;4324;42.012;24.872;2023-06-14T13:28:26;98511.25;;;30.03;55.21
8573;BME280;4324;42.012;24.872;2023-06-14T13:30:54;98509.84;;;30.19;54.83
8573;BME280;4324;42.012;24.872;2023-06-14T13:33:22;98526.94;;;30.47;54.96
8573;BME280;4324;42.012;24.872;2023-06-14T13:35:49;98511.25;;;30.53;54.14
8573;BME280;4324;42.012;24.872;2023-06-14T13:38:19;98509.97;;;30.73;54.30
8573;BME280;4324;42.012;24.872;2023-06-14T13:40:46;98488.88;;;30.87;54.05
8573;BME280;4324;42.012;24.872;2023-06-14T13:43:13;98500.31;;;31.20;53.26
8573;BME280;4324;42.012;24.872;2023-06-14T13:45:40;98489.03;;;31.44;53.11
8573;BME280;4324;42.012;24.872;2023-06-14T13:48:08;98505.22;;;31.63;52.19
8573;BME280;4324;42.012;24.872;2023-06-14T13:50:35;98502.78;;;31.70;52.07
8573;BME280;4324;42.012;24.872;2023-06-14T13:53:02;98506.00;;;31.64;52.24
8573;BME280;4324;42.012;24.872;2023-06-14T13:55:29;98491.63;;;31.49;52.22
8573;BME280;4324;42.012;24.872;2023-06-14T13:57:56;98511.59;;;31.50;52.23
8573;BME280;4324;42.012;24.872;2023-06-14T14:00:23;98506.75;;;31.47;51.99
8573;BME280;4324;42.012;24.872;2023-06-14T14:02:50;98516.56;;;31.48;52.03
8573;BME280;4324;42.012;24.872;2023-06-14T14:05:18;98519.66;;;31.55;52.29
8573;BME280;4324;42.012;24.872;2023-06-14T14:07:46;98508.09;;;31.67;51.92
8573;BME280;4324;42.012;24.872;2023-06-14T14:10:13;98509.50;;;31.87;51.61
8573;BME280;4324;42.012;24.872;2023-06-14T14:12:40;98506.28;;;32.02;51.49
8573;BME280;4324;42.012;24.872;2023-06-14T14:15:07;98506.63;;;32.09;51.09
8573;BME280;4324;42.012;24.872;2023-06-14T14:17:38;98505.16;;;32.03;51.05
8573;BME280;4324;42.012;24.872;2023-06-14T14:20:06;98512.75;;;31.97;50.92
8573;BME280;4324;42.012;24.872;2023-06-14T14:22:34;98508.63;;;31.77;51.29
8573;BME280;4324;42.012;24.872;2023-06-14T14:25:01;98512.56;;;31.54;51.53
8573;BME280;4324;42.012;24.872;2023-06-14T14:27:28;98514.50;;;31.22;51.88
8573;BME280;4324;42.012;24.872;2023-06-14T14:29:55;98500.97;;;30.95;51.89
8573;BME280;4324;42.012;24.872;2023-06-14T14:32:21;98511.69;;;30.82;51.97
8573;BME280;4324;42.012;24.872;2023-06-14T14:34:48;98505.84;;;30.75;52.48
8573;BME280;4324;42.012;24.872;2023-06-14T14:37:15;98494.78;;;30.80;52.05
8573;BME280;4324;42.012;24.872;2023-06-14T14:39:45;98481.44;;;30.79;51.96
8573;BME280;4324;42.012;24.872;2023-06-14T14:42:12;98472.25;;;30.61;51.89
8573;BME280;4324;42.012;24.872;2023-06-14T14:44:39;98494.31;;;30.65;51.90
8573;BME280;4324;42.012;24.872;2023-06-14T14:47:06;98493.19;;;30.66;51.76
8573;BME280;4324;42.012;24.872;2023-06-14T14:49:34;98486.72;;;30.61;51.86
8573;BME280;4324;42.012;24.872;2023-06-14T14:52:01;98452.00;;;30.40;51.51
8573;BME280;4324;42.012;24.872;2023-06-14T14:54:28;98479.34;;;30.62;51.24
8573;BME280;4324;42.012;24.872;2023-06-14T14:56:56;98464.19;;;30.56;51.33
8573;BME280;4324;42.012;24.872;2023-06-14T14:59:23;98470.66;;;30.60;50.79
8573;BME280;4324;42.012;24.872;2023-06-14T15:01:50;98473.41;;;30.60;51.11
8573;BME280;4324;42.012;24.872;2023-06-14T15:04:18;98471.94;;;30.62;50.56
8573;BME280;4324;42.012;24.872;2023-06-14T15:06:45;98457.09;;;30.55;50.88
8573;BME280;4324;42.012;24.872;2023-06-14T15:09:11;98454.88;;;30.57;50.85
8573;BME280;4324;42.012;24.872;2023-06-14T15:11:38;98468.41;;;30.62;50.48
8573;BME280;4324;42.012;24.872;2023-06-14T15:14:06;98470.75;;;30.55;50.43
8573;BME280;4324;42.012;24.872;2023-06-14T15:16:34;98466.19;;;30.42;50.40
8573;BME280;4324;42.012;24.872;2023-06-14T15:19:04;98465.91;;;30.29;50.69
8573;BME280;4324;42.012;24.872;2023-06-14T15:21:31;98480.81;;;30.23;50.66
8573;BME280;4324;42.012;24.872;2023-06-14T15:23:58;98477.66;;;30.16;50.52
8573;BME280;4324;42.012;24.872;2023-06-14T15:26:25;98442.94;;;29.80;50.19
8573;BME280;4324;42.012;24.872;2023-06-14T15:28:53;98474.28;;;29.97;50.39
8573;BME280;4324;42.012;24.872;2023-06-14T15:31:23;98484.19;;;29.93;49.98
8573;BME280;4324;42.012;24.872;2023-06-14T15:33:53;98468.22;;;29.72;49.91
8573;BME280;4324;42.012;24.872;2023-06-14T15:36:20;98479.34;;;29.76;50.57
8573;BME280;4324;42.012;24.872;2023-06-14T15:38:47;98485.22;;;29.69;50.25
8573;BME280;4324;42.012;24.872;2023-06-14T15:41:13;98482.59;;;29.64;50.36
8573;BME280;4324;42.012;24.872;2023-06-14T15:43:40;98487.03;;;29.60;50.56
8573;BME280;4324;42.012;24.872;2023-06-14T15:46:07;98488.81;;;29.51;50.61
8573;BME280;4324;42.012;24.872;2023-06-14T15:48:36;98490.13;;;29.39;50.82
8573;BME280;4324;42.012;24.872;2023-06-14T15:51:02;98491.13;;;29.30;50.92
8573;BME280;4324;42.012;24.872;2023-06-14T15:53:29;98493.44;;;29.23;51.09
8573;BME280;4324;42.012;24.872;2023-06-14T15:55:56;98502.00;;;29.16;51.23
8573;BME280;4324;42.012;24.872;2023-06-14T15:58:23;98478.09;;;28.94;51.16
8573;BME280;4324;42.012;24.872;2023-06-14T16:00:50;98494.69;;;28.98;51.52
8573;BME280;4324;42.012;24.872;2023-06-14T16:03:17;98472.13;;;28.78;51.88
8573;BME280;4324;42.012;24.872;2023-06-14T16:05:45;98491.09;;;28.83;51.97
8573;BME280;4324;42.012;24.872;2023-06-14T16:08:12;98498.78;;;28.81;52.24
8573;BME280;4324;42.012;24.872;2023-06-14T16:10:40;98505.84;;;28.82;52.50
8573;BME280;4324;42.012;24.872;2023-06-14T16:13:07;98506.44;;;28.79;52.70
8573;BME280;4324;42.012;24.872;2023-06-14T16:15:33;98493.28;;;28.67;52.81
8573;BME280;4324;42.012;24.872;2023-06-14T16:18:00;98508.41;;;28.74;52.98
8573;BME280;4324;42.012;24.872;2023-06-14T16:20:27;98508.19;;;28.70;53.41
8573;BME280;4324;42.012;24.872;2023-06-14T16:22:56;98515.78;;;28.73;53.41
8573;BME280;4324;42.012;24.872;2023-06-14T16:25:23;98516.91;;;28.72;53.43
8573;BME280;4324;42.012;24.872;2023-06-14T16:27:49;98515.28;;;28.71;53.72
8573;BME280;4324;42.012;24.872;2023-06-14T16:30:16;98529.94;;;28.75;53.87
8573;BME280;4324;42.012;24.872;2023-06-14T16:32:43;98521.44;;;28.77;53.93
8573;BME280;4324;42.012;24.872;2023-06-14T16:35:10;98529.63;;;28.77;54.09
8573;BME280;4324;42.012;24.872;2023-06-14T16:37:37;98544.56;;;28.79;54.02
8573;BME280;4324;42.012;24.872;2023-06-14T16:40:06;98544.56;;;28.79;54.30
8573;BME280;4324;42.012;24.872;2023-06-14T16:42:33;98541.94;;;28.74;54.66
8573;BME280;4324;42.012;24.872;2023-06-14T16:45:00;98537.66;;;28.68;55.18
8573;BME280;4324;42.012;24.872;2023-06-14T16:47:27;98531.03;;;28.55;55.04
8573;BME280;4324;42.012;24.872;2023-06-14T16:49:54;98538.41;;;28.55;55.64
8573;BME280;4324;42.012;24.872;2023-06-14T16:52:21;98547.31;;;28.60;55.92
8573;BME280;4324;42.012;24.872;2023-06-14T16:54:48;98539.00;;;28.52;56.02
8573;BME280;4324;42.012;24.872;2023-06-14T16:57:16;98537.94;;;28.48;56.54
8573;BME280;4324;42.012;24.872;2023-06-14T16:59:43;98543.19;;;28.44;56.69
8573;BME280;4324;42.012;24.872;2023-06-14T17:02:10;98537.00;;;28.38;57.21
8573;BME280;4324;42.012;24.872;2023-06-14T17:04:36;98530.56;;;28.29;57.32
8573;BME280;4324;42.012;24.872;2023-06-14T17:07:04;98541.44;;;28.29;57.69
8573;BME280;4324;42.012;24.872;2023-06-14T17:09:31;98556.28;;;28.18;57.86
8573;BME280;4324;42.012;24.872;2023-06-14T17:11:58;98546.16;;;28.05;58.40
8573;BME280;4324;42.012;24.872;2023-06-14T17:14:28;98549.78;;;27.95;58.62
8573;BME280;4324;42.012;24.872;2023-06-14T17:16:55;98552.59;;;27.90;58.95
8573;BME280;4324;42.012;24.872;2023-06-14T17:19:22;98553.00;;;27.78;59.28
8573;BME280;4324;42.012;24.872;2023-06-14T17:21:49;98549.25;;;27.69;59.56
8573;BME280;4324;42.012;24.872;2023-06-14T17:24:17;98551.00;;;27.60;59.98
8573;BME280;4324;42.012;24.872;2023-06-14T17:26:44;98562.50;;;27.52;60.24
8573;BME280;4324;42.012;24.872;2023-06-14T17:29:11;98557.16;;;27.41;60.57
8573;BME280;4324;42.012;24.872;2023-06-14T17:31:40;98556.94;;;27.33;60.88
8573;BME280;4324;42.012;24.872;2023-06-14T17:34:07;98561.09;;;27.25;61.36
8573;BME280;4324;42.012;24.872;2023-06-14T17:36:33;98558.19;;;27.16;61.59
8573;BME280;4324;42.012;24.872;2023-06-14T17:39:00;98552.81;;;27.06;61.88
8573;BME280;4324;42.012;24.872;2023-06-14T17:41:28;98561.81;;;27.01;62.33
8573;BME280;4324;42.012;24.872;2023-06-14T17:43:55;98552.13;;;26.90;62.32
8573;BME280;4324;42.012;24.872;2023-06-14T17:46:22;98564.72;;;26.81;62.67
8573;BME280;4324;42.012;24.872;2023-06-14T17:48:50;98550.47;;;26.60;62.99
8573;BME280;4324;42.012;24.872;2023-06-14T17:51:17;98565.91;;;26.65;63.53
8573;BME280;4324;42.012;24.872;2023-06-14T17:53:44;98576.31;;;26.52;63.76
8573;BME280;4324;42.012;24.872;2023-06-14T17:56:11;98579.31;;;26.41;64.21